createdAt,value
2024-03-10T00:03:42.571Z,4.52
2024-03-10T00:08:44.655Z,4.53
2024-03-10T00:13:46.133Z,4.52
2024-03-10T00:18:47.615Z,4.53
2024-03-10T00:23:49.777Z,4.51
2024-03-10T00:28:51.295Z,4.51
2024-03-10T00:33:53.091Z,4.50
2024-03-10T00:38:54.885Z,4.49
2024-03-10T00:43:56.378Z,4.51
2024-03-10T00:48:57.906Z,4.49
2024-03-10T00:53:59.494Z,4.48
2024-03-10T00:59:01.047Z,4.49
2024-03-10T01:04:02.519Z,4.49
2024-03-10T01:09:05.224Z,4.48
2024-03-10T01:14:06.723Z,4.46
2024-03-10T01:19:12.488Z,4.47
2024-03-10T01:24:14.512Z,4.44
2024-03-10T01:29:17.610Z,4.46
2024-03-10T01:34:20.691Z,4.44
2024-03-10T01:39:23.848Z,4.44
2024-03-10T01:44:25.427Z,4.44
2024-03-10T01:49:27.866Z,4.43
2024-03-10T01:54:34.428Z,4.43
2024-03-10T01:59:36.150Z,4.41
2024-03-10T02:04:39.037Z,4.41
2024-03-10T02:09:40.748Z,4.39
2024-03-10T02:14:42.533Z,4.37
2024-03-10T02:19:44.032Z,4.36
2024-03-10T02:24:49.036Z,4.36
2024-03-10T02:30:09.171Z,4.35
2024-03-10T02:35:29.069Z,4.33
2024-03-10T02:40:49.229Z,4.31
2024-03-10T02:46:09.061Z,4.30
2024-03-10T02:51:10.497Z,4.29
2024-03-10T02:56:12.017Z,4.26
2024-03-10T03:01:17.389Z,4.25
2024-03-10T03:06:19.177Z,4.25
2024-03-10T03:11:21.158Z,4.23
2024-03-10T03:16:22.770Z,4.21
2024-03-10T03:21:24.867Z,4.21
2024-03-10T03:26:26.621Z,4.18
2024-03-10T03:31:28.123Z,4.17
2024-03-10T03:36:29.600Z,4.16
2024-03-10T03:41:31.068Z,4.15
2024-03-10T03:46:32.571Z,4.12
2024-03-10T03:51:34.047Z,4.11
2024-03-10T03:56:35.556Z,4.10
2024-03-10T04:01:37.819Z,4.08
2024-03-10T04:06:40.088Z,4.07
2024-03-10T04:11:41.627Z,4.05
2024-03-10T04:16:46.177Z,4.03
2024-03-10T04:21:48.972Z,4.03
2024-03-10T04:26:50.994Z,4.00
2024-03-10T04:31:54.123Z,3.99
2024-03-10T04:36:55.586Z,3.97
2024-03-10T04:41:57.063Z,3.95
2024-03-10T04:46:58.857Z,3.93
2024-03-10T04:52:01.611Z,3.90
2024-03-10T04:57:03.065Z,3.88
2024-03-10T05:02:04.888Z,3.85
2024-03-10T05:07:06.394Z,3.84
2024-03-10T05:12:10.124Z,3.80
2024-03-10T05:17:12.803Z,3.76
2024-03-10T05:22:14.497Z,3.74
2024-03-10T05:27:18.527Z,3.72
2024-03-10T05:32:20.368Z,3.70
2024-03-10T05:37:23.490Z,3.67
2024-03-10T05:42:25.061Z,3.66
2024-03-10T05:47:28.360Z,3.66
2024-03-10T05:52:29.860Z,3.65
2024-03-10T05:57:31.798Z,3.63
2024-03-10T06:02:33.702Z,3.65
2024-03-10T06:07:35.161Z,3.66
2024-03-10T06:12:38.637Z,3.68
2024-03-10T06:17:42.625Z,3.70
2024-03-10T06:23:02.978Z,3.73
2024-03-10T06:28:04.798Z,3.79
2024-03-10T06:33:06.305Z,3.85
2024-03-10T06:38:08.504Z,3.88
2024-03-10T06:43:10.055Z,3.93
2024-03-10T06:48:14.437Z,3.96
2024-03-10T06:53:15.929Z,4.02
2024-03-10T06:58:18.377Z,4.06
2024-03-10T07:03:20.003Z,4.09
2024-03-10T07:08:22.246Z,4.14
2024-03-10T07:13:24.171Z,4.20
2024-03-10T07:18:25.738Z,4.24
2024-03-10T07:23:27.380Z,4.30
2024-03-10T07:28:28.891Z,4.36
2024-03-10T07:33:30.506Z,4.41
2024-03-10T07:38:32.062Z,4.45
2024-03-10T07:43:33.582Z,4.52
2024-03-10T07:48:37.029Z,4.58
2024-03-10T07:53:38.502Z,4.67
2024-03-10T07:58:40.201Z,4.72
2024-03-10T08:03:42.167Z,4.81
2024-03-10T08:08:43.865Z,4.89
2024-03-10T08:13:46.025Z,5.00
2024-03-10T08:18:49.745Z,5.09
2024-03-10T08:23:52.594Z,5.19
2024-03-10T08:28:54.086Z,5.31
2024-03-10T08:33:55.874Z,5.47
2024-03-10T08:38:57.510Z,5.59
2024-03-10T08:44:01.244Z,5.75
2024-03-10T08:49:03.278Z,5.94
2024-03-10T08:54:09.077Z,6.16
2024-03-10T08:59:13.176Z,6.42
2024-03-10T09:04:15.164Z,6.75
2024-03-10T09:09:19.664Z,7.12
2024-03-10T09:14:21.434Z,7.45
2024-03-10T09:19:22.953Z,7.69
2024-03-10T09:24:24.460Z,7.89
2024-03-10T09:29:28.832Z,8.07
2024-03-10T09:34:31.549Z,8.27
2024-03-10T09:39:34.062Z,8.51
2024-03-10T09:44:37.583Z,8.81
2024-03-10T09:49:40.055Z,9.37
2024-03-10T09:54:42.105Z,9.73
2024-03-10T09:59:45.399Z,9.82
2024-03-10T10:04:58.352Z,10.02
2024-03-10T10:10:05.025Z,10.14
2024-03-10T10:15:08.759Z,10.26
2024-03-10T10:20:13.241Z,10.30
2024-03-10T10:25:16.021Z,10.35
2024-03-10T10:30:20.382Z,10.65
2024-03-10T10:35:23.207Z,11.09
2024-03-10T10:40:24.723Z,11.57
2024-03-10T10:45:28.392Z,11.95
2024-03-10T10:50:35.235Z,12.29
2024-03-10T10:55:41.216Z,12.33
2024-03-10T11:00:51.021Z,12.37
2024-03-10T11:06:09.446Z,12.57
2024-03-10T11:11:15.873Z,12.75
2024-03-10T11:16:25.848Z,12.79
2024-03-10T11:21:27.521Z,12.76
2024-03-10T11:26:29.626Z,12.70
2024-03-10T11:31:34.207Z,12.61
2024-03-10T11:36:38.166Z,12.50
2024-03-10T11:41:39.857Z,12.42
2024-03-10T11:46:41.349Z,12.36
2024-03-10T11:51:45.146Z,12.26
2024-03-10T11:56:51.835Z,12.21
2024-03-10T12:01:54.309Z,12.17
2024-03-10T12:06:55.806Z,12.17
2024-03-10T12:11:58.318Z,12.12
2024-03-10T12:17:00.140Z,12.10
2024-03-10T12:22:02.495Z,12.09
2024-03-10T12:27:07.668Z,12.04
2024-03-10T12:32:12.583Z,12.05
2024-03-10T12:37:14.150Z,12.07
2024-03-10T12:42:16.165Z,12.13
2024-03-10T12:47:18.043Z,12.20
2024-03-10T12:52:19.538Z,12.35
2024-03-10T12:57:22.618Z,12.47
2024-03-10T13:02:24.464Z,12.58
2024-03-10T13:07:26.508Z,12.65
2024-03-10T13:12:28.103Z,12.78
2024-03-10T13:17:30.422Z,12.93
2024-03-10T13:22:32.014Z,13.02
2024-03-10T13:27:36.397Z,13.07
2024-03-10T13:32:38.135Z,13.08
2024-03-10T13:37:39.760Z,13.09
2024-03-10T13:42:46.097Z,13.14
2024-03-10T13:47:49.078Z,13.23
2024-03-10T13:52:50.793Z,13.34
2024-03-10T13:57:55.084Z,13.47
2024-03-10T14:02:57.623Z,13.65
2024-03-10T14:08:00.619Z,13.96
2024-03-10T14:13:04.371Z,13.98
2024-03-10T14:18:08.310Z,14.08
2024-03-10T14:23:09.996Z,13.93
2024-03-10T14:28:11.592Z,13.76
2024-03-10T14:33:13.570Z,13.59
2024-03-10T14:38:15.168Z,13.49
2024-03-10T14:43:18.635Z,13.39
2024-03-10T14:48:20.149Z,13.27
2024-03-10T14:53:22.762Z,13.18
2024-03-10T14:58:24.964Z,13.06
2024-03-10T15:03:27.672Z,12.97
2024-03-10T15:08:29.298Z,12.83
2024-03-10T15:13:30.733Z,12.74
2024-03-10T15:18:35.212Z,12.63
2024-03-10T15:23:38.275Z,12.56
2024-03-10T15:28:39.734Z,12.46
2024-03-10T15:33:41.293Z,12.37
2024-03-10T15:38:42.952Z,12.29
2024-03-10T15:43:44.415Z,12.19
2024-03-10T15:48:46.750Z,12.10
2024-03-10T15:53:49.383Z,12.01
2024-03-10T15:58:54.699Z,11.91
2024-03-10T16:04:02.152Z,11.81
2024-03-10T16:09:05.816Z,11.72
2024-03-10T16:14:12.322Z,11.65
2024-03-10T16:19:15.087Z,11.56
2024-03-10T16:24:16.664Z,11.47
2024-03-10T16:29:19.318Z,11.40
2024-03-10T16:34:20.844Z,11.34
2024-03-10T16:39:24.224Z,11.27
2024-03-10T16:44:28.019Z,11.21
2024-03-10T16:49:30.663Z,11.15
2024-03-10T16:54:35.364Z,11.09
2024-03-10T16:59:36.995Z,11.04
2024-03-10T17:04:38.767Z,10.97
2024-03-10T17:09:40.523Z,10.90
2024-03-10T17:14:42.086Z,10.87
2024-03-10T17:19:43.546Z,10.81
2024-03-10T17:24:46.376Z,10.75
2024-03-10T17:29:47.887Z,10.71
2024-03-10T17:34:50.013Z,10.66
2024-03-10T17:39:55.409Z,10.64
2024-03-10T17:45:16.926Z,10.59
2024-03-10T17:50:19.796Z,10.56
2024-03-10T17:55:21.440Z,10.52
2024-03-10T18:00:23.750Z,10.47
2024-03-10T18:05:28.468Z,10.43
2024-03-10T18:10:29.973Z,10.38
2024-03-10T18:15:31.384Z,10.36
2024-03-10T18:20:32.941Z,10.34
2024-03-10T18:25:35.088Z,10.30
2024-03-10T18:30:41.102Z,10.26
2024-03-10T18:35:42.727Z,10.23
2024-03-10T18:40:51.517Z,10.20
2024-03-10T18:45:52.984Z,10.16
2024-03-10T18:51:02.145Z,10.13
2024-03-10T18:56:09.498Z,10.10
2024-03-10T19:01:12.315Z,10.07
2024-03-10T19:06:16.990Z,10.03
2024-03-10T19:11:19.104Z,9.99
2024-03-10T19:16:22.834Z,9.98
2024-03-10T19:21:24.391Z,9.94
2024-03-10T19:26:26.017Z,9.92
2024-03-10T19:31:27.631Z,9.89
2024-03-10T19:36:32.173Z,9.85
2024-03-10T19:41:33.817Z,9.81
2024-03-10T19:46:35.357Z,9.80
2024-03-10T19:51:37.689Z,9.78
2024-03-10T19:56:39.296Z,9.75
2024-03-10T20:01:40.804Z,9.73
2024-03-10T20:06:42.248Z,9.69
2024-03-10T20:11:44.571Z,9.65
2024-03-10T20:16:46.542Z,9.63
2024-03-10T20:21:48.403Z,9.60
2024-03-10T20:26:49.853Z,9.54
2024-03-10T20:31:51.534Z,9.49
2024-03-10T20:36:53.048Z,9.48
2024-03-10T20:41:54.560Z,9.43
2024-03-10T20:46:56.104Z,9.37
2024-03-10T20:51:57.806Z,9.35
2024-03-10T20:56:59.261Z,9.33
2024-03-10T21:02:01.635Z,9.28
2024-03-10T21:07:05.700Z,9.24
2024-03-10T21:12:08.546Z,9.20
2024-03-10T21:17:10.610Z,9.17
2024-03-10T21:22:13.898Z,9.14
2024-03-10T21:27:15.690Z,9.11
2024-03-10T21:32:17.377Z,9.08
2024-03-10T21:37:18.896Z,9.04
2024-03-10T21:42:20.863Z,9.02
2024-03-10T21:47:24.948Z,8.93
2024-03-10T21:52:26.896Z,8.90
2024-03-10T21:57:28.393Z,8.87
2024-03-10T22:02:29.880Z,8.83
2024-03-10T22:07:31.364Z,8.80
2024-03-10T22:12:33.001Z,8.78
2024-03-10T22:17:34.788Z,8.72
2024-03-10T22:22:36.385Z,8.67
2024-03-10T22:27:39.541Z,8.67
2024-03-10T22:32:41.210Z,8.64
2024-03-10T22:37:45.103Z,8.60
2024-03-10T22:42:49.354Z,8.58
2024-03-10T22:47:54.110Z,8.57
2024-03-10T22:52:56.999Z,8.53
2024-03-10T22:58:02.252Z,8.54
2024-03-10T23:03:07.490Z,8.50
2024-03-10T23:08:14.093Z,8.47
2024-03-10T23:13:17.085Z,8.44
2024-03-10T23:18:25.034Z,8.41
2024-03-10T23:23:27.307Z,8.39
2024-03-10T23:28:28.740Z,8.35
2024-03-10T23:33:30.840Z,8.32
2024-03-10T23:38:33.086Z,8.29
2024-03-10T23:43:34.565Z,8.24
2024-03-10T23:48:36.748Z,8.19
2024-03-10T23:53:41.573Z,8.17
2024-03-10T23:58:43.214Z,8.09
